Time;durP1;ratioP1;P1;durP2;ratioP2;P2;SDS_P1;SDS_P2;PMS_P1;PMS_P2;Temp;Humidity;BMP_temperature;BMP_pressure;BME280_temperature;BME280_humidity;BME280_pressure;Samples;Min_cycle;Max_cycle;Signal;HPM_P1;HPM_P2
2023/04/11 00:00:26;;;;;;;1999.90;999.90;;;9.50;99.90;;;;;;4951462;28;20447;-80
2023/04/11 00:02:53;;;;;;;1999.90;999.90;;;9.50;99.90;;;;;;4973480;28;20050;-81
2023/04/11 00:05:19;;;;;;;1999.90;999.90;;;9.00;99.90;;;;;;4975901;28;20050;-86
2023/04/11 00:07:45;;;;;;;1999.90;999.90;;;9.50;99.90;;;;;;4972444;28;20046;-87
2023/04/11 00:10:11;;;;;;;1999.90;999.90;;;7.50;99.90;;;;;;4976253;28;20061;-82
2023/04/11 00:12:37;;;;;;;1999.90;999.90;;;9.00;99.90;;;;;;4970231;28;20201;-81
2023/04/11 00:15:03;;;;;;;1999.90;999.90;;;9.40;99.90;;;;;;4969582;28;20050;-82
2023/04/11 00:17:30;;;;;;;1999.90;999.90;;;8.90;99.90;;;;;;4972284;28;20035;-82
2023/04/11 00:20:00;;;;;;;1999.90;999.90;;;8.80;99.90;;;;;;4974618;28;20059;-82
2023/04/11 00:22:26;;;;;;;1999.90;999.90;;;8.90;99.90;;;;;;4954173;28;20035;-81
2023/04/11 00:24:52;;;;;;;1999.90;999.90;;;8.70;99.90;;;;;;4972564;28;20046;-85
2023/04/11 00:27:18;;;;;;;1999.90;999.90;;;8.70;99.90;;;;;;4956865;28;20039;-83
2023/04/11 00:29:43;;;;;;;1999.90;999.90;;;9.80;99.90;;;;;;4999712;28;20045;-82
2023/04/11 00:32:09;;;;;;;1999.90;999.90;;;6.20;99.90;;;;;;4981121;28;20498;-83
2023/04/11 00:34:35;;;;;;;1999.90;999.90;;;9.20;99.90;;;;;;5007672;28;20497;-82
2023/04/11 00:37:00;;;;;;;1999.90;999.90;;;9.00;99.90;;;;;;4984348;28;20122;-82
2023/04/11 00:39:29;;;;;;;1999.90;999.90;;;9.30;99.90;;;;;;4995377;28;20463;-83
2023/04/11 00:42:03;;;;;;;1999.90;999.90;;;9.70;99.90;;;;;;4993757;28;20061;-85
2023/04/11 00:44:29;;;;;;;1999.90;999.90;;;8.00;99.90;;;;;;4995767;28;20074;-83
2023/04/11 00:46:55;;;;;;;1999.90;999.90;;;8.40;99.90;;;;;;4998077;28;20591;-83
2023/04/11 00:49:20;;;;;;;1999.90;999.90;;;9.30;99.90;;;;;;4982116;28;20104;-86
2023/04/11 00:51:46;;;;;;;1999.90;999.90;;;8.40;99.90;;;;;;4973531;28;20037;-83
2023/04/11 00:54:12;;;;;;;1999.90;999.90;;;8.70;99.90;;;;;;4994797;28;20542;-83
2023/04/11 00:56:38;;;;;;;1999.90;999.90;;;8.50;99.90;;;;;;4984284;28;20133;-82
2023/04/11 00:59:04;;;;;;;1999.90;999.90;;;;;;;;;;4963291;28;20085;-84
2023/04/11 01:01:34;;;;;;;1999.90;999.90;;;10.80;99.90;;;;;;4980560;28;20089;-87
2023/04/11 01:04:01;;;;;;;1999.90;999.90;;;9.00;99.90;;;;;;4995741;28;20042;-82
2023/04/11 01:06:29;;;;;;;1999.90;999.90;;;8.30;99.90;;;;;;4992955;28;20475;-81
2023/04/11 01:08:56;;;;;;;1999.90;999.90;;;9.20;99.90;;;;;;4991550;28;20086;-88
2023/04/11 01:11:22;;;;;;;1999.90;999.90;;;8.40;99.90;;;;;;4985812;28;20038;-82
2023/04/11 01:13:49;;;;;;;1999.90;999.90;;;8.90;99.90;;;;;;4986196;28;20050;-81
2023/04/11 01:16:20;;;;;;;1999.90;999.90;;;8.40;99.90;;;;;;4989295;28;20048;-84
2023/04/11 01:18:47;;;;;;;1999.90;999.90;;;8.90;99.90;;;;;;4999121;28;20037;-82
2023/04/11 01:21:13;;;;;;;1999.90;999.90;;;8.60;99.90;;;;;;4989312;28;20049;-83
2023/04/11 01:23:39;;;;;;;1999.90;999.90;;;8.80;99.90;;;;;;4988864;28;20129;-82
2023/04/11 01:26:05;;;;;;;1958.35;511.00;;;8.40;99.90;;;;;;4975972;28;20065;-82
2023/04/11 01:28:31;;;;;;;1920.55;814.92;;;7.00;99.90;;;;;;4971633;28;20463;-85
2023/04/11 01:30:57;;;;;;;1999.90;999.90;;;7.70;99.90;;;;;;4985803;28;20062;-83
2023/04/11 01:33:23;;;;;;;1999.90;999.90;;;8.50;99.90;;;;;;4985443;28;20050;-82
2023/04/11 01:35:49;;;;;;;1999.90;999.90;;;8.60;99.90;;;;;;4995421;28;20096;-81
2023/04/11 01:38:15;;;;;;;1999.90;999.90;;;9.60;99.90;;;;;;4988442;28;20563;-82
2023/04/11 01:40:42;;;;;;;1999.90;999.90;;;8.80;99.90;;;;;;4948925;28;20180;-82
2023/04/11 01:43:08;;;;;;;1999.90;999.90;;;8.20;99.90;;;;;;4989989;28;20130;-82
2023/04/11 01:45:35;;;;;;;1999.90;999.90;;;8.60;99.90;;;;;;4972681;28;20046;-82
2023/04/11 01:48:07;;;;;;;1516.15;321.98;;;9.70;99.90;;;;;;4979429;28;20048;-83
2023/04/11 01:50:33;;;;;;;1999.90;999.90;;;8.60;99.90;;;;;;4974250;28;20050;-82
2023/04/11 01:52:59;;;;;;;1985.50;474.08;;;8.60;99.90;;;;;;4972660;28;20455;-84
2023/04/11 01:55:25;;;;;;;1999.90;999.90;;;9.10;99.90;;;;;;4979097;28;20589;-82
2023/04/11 01:57:50;;;;;;;1999.90;999.90;;;8.70;99.90;;;;;;4981442;28;20077;-81
2023/04/11 02:00:16;;;;;;;1999.90;999.90;;;9.30;99.90;;;;;;4984016;28;20120;-81
2023/04/11 02:02:42;;;;;;;1999.90;999.90;;;8.50;99.90;;;;;;4978331;28;20038;-81
2023/04/11 02:05:08;;;;;;;1999.90;999.90;;;9.20;99.90;;;;;;4967861;28;20061;-81
2023/04/11 02:07:34;;;;;;;1999.90;999.90;;;9.20;99.90;;;;;;4973843;28;20070;-80
2023/04/11 02:09:59;;;;;;;1999.90;999.90;;;9.00;99.90;;;;;;4975387;28;20045;-84
2023/04/11 02:12:25;;;;;;;1999.90;999.90;;;9.60;99.90;;;;;;4971165;28;20390;-86
2023/04/11 02:14:51;;;;;;;1999.90;999.90;;;9.20;99.90;;;;;;4981775;28;20037;-79
2023/04/11 02:17:17;;;;;;;1999.90;999.90;;;9.30;99.90;;;;;;4971212;28;20048;-81
2023/04/11 02:19:46;;;;;;;1999.90;999.90;;;8.80;99.90;;;;;;4985027;28;20066;-79
2023/04/11 02:22:13;;;;;;;1999.90;999.90;;;8.70;99.90;;;;;;4941420;28;20057;-79
2023/04/11 02:24:39;;;;;;;1999.90;999.90;;;11.40;99.90;;;;;;4977390;28;20044;-81
2023/04/11 02:27:06;;;;;;;1999.90;999.90;;;8.90;99.90;;;;;;4980806;28;20463;-79
2023/04/11 02:29:32;;;;;;;1999.90;999.90;;;8.80;99.90;;;;;;4970170;28;20145;-79
2023/04/11 02:31:58;;;;;;;1999.90;999.90;;;9.10;99.90;;;;;;4959125;28;20400;-79
2023/04/11 02:34:24;;;;;;;1999.90;999.90;;;8.70;99.90;;;;;;4994254;28;20046;-79
2023/04/11 02:36:50;;;;;;;1999.90;999.90;;;8.70;99.90;;;;;;4983267;28;20130;-79
2023/04/11 02:39:15;;;;;;;1999.90;999.90;;;8.70;99.90;;;;;;4975302;28;20047;-79
2023/04/11 02:41:41;;;;;;;1999.90;999.90;;;8.70;99.90;;;;;;4978390;28;20079;-79
2023/04/11 02:44:10;;;;;;;1999.90;999.90;;;8.60;99.90;;;;;;4980599;28;20038;-80
2023/04/11 02:46:35;;;;;;;1999.90;999.90;;;9.60;99.90;;;;;;5002641;28;20058;-79
2023/04/11 02:49:01;;;;;;;1999.90;999.90;;;8.60;99.90;;;;;;4974066;28;20042;-79
2023/04/11 02:51:27;;;;;;;1999.90;999.90;;;8.90;99.90;;;;;;4972225;28;20045;-79
2023/04/11 02:53:53;;;;;;;1999.90;999.90;;;8.80;99.90;;;;;;4998447;28;20043;-79
2023/04/11 02:56:19;;;;;;;1999.90;999.90;;;9.20;99.90;;;;;;4992531;28;20574;-87
2023/04/11 02:58:45;;;;;;;1999.90;999.90;;;9.20;99.90;;;;;;4981365;28;20383;-80
2023/04/11 03:01:13;;;;;;;1999.90;999.90;;;8.90;99.90;;;;;;4975095;28;20046;-81
2023/04/11 03:03:40;;;;;;;1999.90;999.90;;;8.70;99.90;;;;;;4975183;28;20075;-80
2023/04/11 03:06:06;;;;;;;1999.90;999.90;;;9.10;99.90;;;;;;4965623;28;20488;-80
2023/04/11 03:08:34;;;;;;;1999.90;999.90;;;8.60;99.90;;;;;;4958854;28;20090;-80
2023/04/11 03:11:01;;;;;;;1999.90;999.90;;;9.70;99.90;;;;;;4963814;28;20047;-81
2023/04/11 03:13:26;;;;;;;1999.90;999.90;;;8.00;99.90;;;;;;4955232;28;20042;-81
2023/04/11 03:15:52;;;;;;;1999.90;999.90;;;8.90;99.90;;;;;;4969003;28;20050;-81
2023/04/11 03:18:20;;;;;;;1999.90;999.90;;;9.20;99.90;;;;;;4954930;28;20054;-86
2023/04/11 03:20:45;;;;;;;1999.90;999.90;;;9.20;99.90;;;;;;4972189;28;20050;-82
2023/04/11 03:23:11;;;;;;;1999.90;999.90;;;8.70;99.90;;;;;;4953436;28;20464;-82
2023/04/11 03:25:37;;;;;;;1999.90;999.90;;;8.90;99.90;;;;;;4954350;28;20090;-82
2023/04/11 03:28:04;;;;;;;1999.90;999.90;;;9.20;99.90;;;;;;4965521;28;20042;-82
2023/04/11 03:30:30;;;;;;;1999.90;999.90;;;9.20;99.90;;;;;;4959661;28;20112;-83
2023/04/11 03:32:59;;;;;;;1999.90;999.90;;;8.80;99.90;;;;;;4970506;28;20054;-82
2023/04/11 03:35:26;;;;;;;1999.90;999.90;;;9.20;99.90;;;;;;4978763;28;20047;-83
2023/04/11 03:37:51;;;;;;;1999.90;999.90;;;9.20;99.90;;;;;;4975360;28;20505;-82
2023/04/11 03:40:17;;;;;;;1999.90;999.90;;;9.80;99.90;;;;;;4951622;28;20039;-82
2023/04/11 03:42:45;;;;;;;1999.90;999.90;;;9.60;99.90;;;;;;4957687;28;20399;-82
2023/04/11 03:45:10;;;;;;;1999.90;999.90;;;9.20;99.90;;;;;;4966893;28;20050;-83
2023/04/11 03:47:38;;;;;;;1999.90;999.90;;;9.60;99.90;;;;;;5001628;28;20042;-87
2023/04/11 03:50:04;;;;;;;1999.90;999.90;;;9.30;99.90;;;;;;4976741;28;20045;-82
2023/04/11 03:52:30;;;;;;;1999.90;999.90;;;8.80;99.90;;;;;;4958845;28;20042;-83
2023/04/11 03:54:56;;;;;;;1999.90;999.90;;;9.00;99.90;;;;;;4980696;28;20038;-82
2023/04/11 03:57:21;;;;;;;1999.90;999.90;;;8.80;99.90;;;;;;4986347;28;20126;-83
2023/04/11 03:59:47;;;;;;;1999.90;999.90;;;8.80;99.90;;;;;;4986677;28;20072;-83
2023/04/11 04:02:14;;;;;;;1999.90;999.90;;;8.80;99.90;;;;;;4989332;28;20046;-84
2023/04/11 04:04:45;;;;;;;1999.90;999.90;;;9.10;99.90;;;;;;4972037;28;20046;-83
2023/04/11 04:07:11;;;;;;;1999.90;999.90;;;9.40;99.90;;;;;;4961329;28;20080;-86
2023/04/11 04:09:37;;;;;;;1999.90;999.90;;;9.10;99.90;;;;;;4986132;28;20049;-87
2023/04/11 04:12:03;;;;;;;1999.90;999.90;;;9.40;99.90;;;;;;4954084;28;20050;-87
2023/04/11 04:14:29;;;;;;;1999.90;999.90;;;9.40;99.90;;;;;;4958197;28;20056;-84
2023/04/11 04:16:55;;;;;;;1999.90;999.90;;;9.10;99.90;;;;;;4955182;28;20484;-84
2023/04/11 04:19:20;;;;;;;1220.80;53.20;;;8.90;99.90;;;;;;4955341;28;20525;-85
2023/04/11 04:21:46;;;;;;;1999.90;999.90;;;9.00;99.90;;;;;;4952963;28;20105;-84
2023/04/11 04:24:12;;;;;;;1999.90;999.90;;;10.10;99.90;;;;;;4953066;28;20047;-83
2023/04/11 04:26:38;;;;;;;1999.90;999.90;;;9.50;99.90;;;;;;5004701;28;20056;-83
2023/04/11 04:29:04;;;;;;;1999.90;999.90;;;9.30;99.90;;;;;;4955484;28;20126;-83
2023/04/11 04:31:33;;;;;;;1999.90;999.90;;;9.60;99.90;;;;;;4959978;28;20055;-85
2023/04/11 04:34:07;;;;;;;1999.90;999.90;;;9.10;99.90;;;;;;4968539;28;20411;-87
2023/04/11 04:36:46;;;;;;;1999.90;999.90;;;9.50;99.90;;;;;;4964222;28;20050;-84
2023/04/11 04:39:16;;;;;;;1999.90;999.90;;;9.10;99.90;;;;;;4962566;28;20573;-85
2023/04/11 04:41:56;;;;;;;1999.90;999.90;;;9.20;99.90;;;;;;4963930;28;20047;-85
2023/04/11 04:44:23;;;;;;;1999.90;999.90;;;9.50;99.90;;;;;;4966604;28;20046;-84
2023/04/11 04:46:55;;;;;;;1999.90;999.90;;;9.40;99.90;;;;;;4964874;28;20082;-83
2023/04/11 04:49:20;;;;;;;1999.90;999.90;;;9.10;99.90;;;;;;4962409;28;20047;-86
2023/04/11 04:51:46;;;;;;;1999.90;999.90;;;8.90;99.90;;;;;;4966536;28;20054;-83
2023/04/11 04:54:13;;;;;;;1999.90;999.90;;;10.10;99.90;;;;;;4965331;28;20046;-83
2023/04/11 04:56:38;;;;;;;1999.90;999.90;;;9.40;99.90;;;;;;4974921;28;20299;-83
2023/04/11 04:59:04;;;;;;;1999.90;999.90;;;9.40;99.90;;;;;;4964196;28;20750;-86
2023/04/11 05:01:31;;;;;;;1673.75;786.33;;;9.10;99.90;;;;;;4977627;28;20133;-84
2023/04/11 05:03:57;;;;;;;1999.90;999.90;;;9.70;99.90;;;;;;4959402;28;20046;-83
2023/04/11 05:06:30;;;;;;;1999.90;999.90;;;9.40;99.90;;;;;;4970737;28;20349;-84
2023/04/11 05:08:57;;;;;;;1999.90;999.90;;;9.20;99.90;;;;;;4968634;28;20049;-84
2023/04/11 05:11:27;;;;;;;1999.90;999.90;;;9.00;99.90;;;;;;4965160;28;20054;-84
2023/04/11 05:13:53;;;;;;;1999.90;999.90;;;10.00;99.90;;;;;;4972440;28;20097;-84
2023/04/11 05:16:20;;;;;;;1999.90;999.90;;;11.30;99.90;;;;;;4959905;28;20271;-85
2023/04/11 05:18:46;;;;;;;1999.90;999.90;;;8.60;99.90;;;;;;4942022;28;20443;-84
2023/04/11 05:21:13;;;;;;;1999.90;999.90;;;9.10;99.90;;;;;;4956929;28;20038;-84
2023/04/11 05:23:39;;;;;;;1999.90;999.90;;;8.90;99.90;;;;;;4962906;28;20047;-83
2023/04/11 05:26:08;;;;;;;1999.90;999.90;;;9.10;99.90;;;;;;4964637;28;20552;-86
2023/04/11 05:28:34;;;;;;;1999.90;999.90;;;9.40;99.90;;;;;;4960006;28;20090;-88
2023/04/11 05:31:01;;;;;;;1999.90;999.90;;;9.50;99.90;;;;;;4967027;28;20125;-83
2023/04/11 05:33:27;;;;;;;1999.90;999.90;;;8.90;99.90;;;;;;4980134;28;20057;-83
2023/04/11 05:35:53;;;;;;;1999.90;999.90;;;9.60;99.90;;;;;;4978688;28;20049;-82
2023/04/11 05:38:19;;;;;;;1999.90;999.90;;;;;;;;;;4965748;28;20116;-83
2023/04/11 05:40:45;;;;;;;1999.90;999.90;;;;;;;;;;4969156;28;20042;-81
2023/04/11 05:43:13;;;;;;;1999.90;999.90;;;9.20;99.90;;;;;;4979990;28;20046;-81
2023/04/11 05:45:46;;;;;;;1999.90;999.90;;;9.90;99.90;;;;;;4984125;28;20058;-86
2023/04/11 05:48:18;;;;;;;1999.90;999.90;;;10.20;99.90;;;;;;4979766;28;20038;-80
2023/04/11 05:50:44;;;;;;;1999.90;999.90;;;13.00;99.90;;;;;;4983454;28;20046;-83
2023/04/11 05:53:10;;;;;;;1999.90;999.90;;;8.70;99.90;;;;;;4966096;28;20039;-82
2023/04/11 05:55:37;;;;;;;1999.90;999.90;;;8.40;99.90;;;;;;4983683;28;20047;-79
2023/04/11 05:58:03;;;;;;;1999.90;999.90;;;8.90;99.90;;;;;;4963097;28;20061;-83
2023/04/11 06:00:30;;;;;;;1999.90;999.90;;;9.30;99.90;;;;;;4975728;28;20371;-81
2023/04/11 06:02:56;;;;;;;1999.90;999.90;;;9.00;99.90;;;;;;4949154;28;20114;-81
2023/04/11 06:05:23;;;;;;;1999.90;999.90;;;9.40;99.90;;;;;;4982897;28;20058;-81
2023/04/11 06:07:48;;;;;;;1999.90;999.90;;;10.00;99.90;;;;;;4981724;28;20050;-81
2023/04/11 06:10:14;;;;;;;1999.90;999.90;;;10.60;99.90;;;;;;4956013;28;20042;-81
2023/04/11 06:12:40;;;;;;;1999.90;999.90;;;9.00;99.90;;;;;;4983277;28;20121;-86
2023/04/11 06:15:08;;;;;;;1999.90;999.90;;;9.80;99.90;;;;;;4990913;28;20073;-81
2023/04/11 06:17:34;;;;;;;1999.90;999.90;;;9.60;99.90;;;;;;4975320;28;20054;-81
2023/04/11 06:20:00;;;;;;;1999.90;999.90;;;9.70;99.90;;;;;;4990550;28;20045;-82
2023/04/11 06:22:26;;;;;;;1999.90;999.90;;;9.80;99.90;;;;;;4961580;28;20046;-81
2023/04/11 06:24:51;;;;;;;1999.90;999.90;;;8.80;99.90;;;;;;4965047;28;20043;-80
2023/04/11 06:27:17;;;;;;;1999.90;999.90;;;;;;;;;;4980664;28;20050;-82
2023/04/11 06:29:43;;;;;;;1999.90;999.90;;;9.70;99.90;;;;;;4989431;28;20045;-86
2023/04/11 06:32:11;;;;;;;1999.90;999.90;;;10.30;99.90;;;;;;4990982;28;20108;-85
2023/04/11 06:34:39;;;;;;;1999.90;999.90;;;9.60;99.90;;;;;;4991679;28;20057;-80
2023/04/11 06:37:06;;;;;;;1999.90;999.90;;;9.70;99.90;;;;;;5011442;28;20046;-80
2023/04/11 06:39:33;;;;;;;1999.90;999.90;;;;;;;;;;5011410;28;20055;-80
2023/04/11 06:41:59;;;;;;;1999.90;999.90;;;9.20;99.90;;;;;;5008634;28;20046;-80
2023/04/11 06:44:25;;;;;;;1999.90;999.90;;;9.80;99.90;;;;;;5012109;28;20046;-82
2023/04/11 06:46:51;;;;;;;1999.90;999.90;;;9.00;99.90;;;;;;4989809;28;20115;-80
2023/04/11 06:49:17;;;;;;;1999.90;999.90;;;10.10;99.90;;;;;;4997320;28;20061;-82
2023/04/11 06:51:48;;;;;;;1999.90;999.90;;;9.10;99.90;;;;;;5012000;28;20061;-80
2023/04/11 06:54:15;;;;;;;1999.90;999.90;;;10.00;99.90;;;;;;4997511;28;20053;-80
2023/04/11 06:56:42;;;;;;;1999.90;999.90;;;9.30;99.90;;;;;;4993704;28;20050;-81
2023/04/11 06:59:08;;;;;;;1999.90;999.90;;;9.20;99.90;;;;;;5001091;28;20410;-82
2023/04/11 07:01:36;;;;;;;1999.90;999.90;;;9.60;99.90;;;;;;4972392;28;20509;-82
2023/04/11 07:04:05;;;;;;;1999.90;999.90;;;9.70;99.90;;;;;;4999139;28;20125;-82
2023/04/11 07:06:34;;;;;;;1999.90;999.90;;;9.40;99.90;;;;;;5004761;28;20077;-81
2023/04/11 07:09:00;;;;;;;1999.90;999.90;;;;;;;;;;4979089;28;20169;-82
2023/04/11 07:11:27;;;;;;;1999.90;999.90;;;10.00;99.90;;;;;;4997756;28;20056;-81
2023/04/11 07:13:54;;;;;;;1999.90;999.90;;;9.30;99.90;;;;;;5013386;28;20041;-82
2023/04/11 07:16:20;;;;;;;1999.90;999.90;;;10.00;99.90;;;;;;5003512;28;20049;-83
2023/04/11 07:18:47;;;;;;;1999.90;999.90;;;9.60;99.90;;;;;;5010882;28;20637;-82
2023/04/11 07:21:14;;;;;;;1999.90;999.90;;;9.90;99.90;;;;;;4985637;28;20048;-81
2023/04/11 07:23:40;;;;;;;1999.90;999.90;;;9.60;99.90;;;;;;5010517;28;20092;-83
2023/04/11 07:26:07;;;;;;;1999.90;999.90;;;9.30;99.90;;;;;;4988465;28;20391;-83
2023/04/11 07:28:36;;;;;;;1999.90;999.90;;;9.80;99.90;;;;;;4968149;28;20054;-82
2023/04/11 07:31:03;;;;;;;1999.90;999.90;;;11.60;99.90;;;;;;4998934;28;20111;-82
2023/04/11 07:33:29;;;;;;;1999.90;999.90;;;9.70;99.90;;;;;;4988972;28;20049;-83
2023/04/11 07:35:55;;;;;;;1999.90;999.90;;;10.40;99.90;;;;;;4995822;28;20094;-82
2023/04/11 07:38:28;;;;;;;1999.90;999.90;;;10.30;99.90;;;;;;5006509;28;20076;-82
2023/04/11 07:40:55;;;;;;;1999.90;999.90;;;10.10;99.90;;;;;;4994620;28;20069;-82
2023/04/11 07:43:25;;;;;;;1999.90;999.90;;;10.50;99.90;;;;;;5007897;28;20050;-82
2023/04/11 07:45:52;;;;;;;1999.90;999.90;;;10.00;99.90;;;;;;4999157;28;20052;-81
2023/04/11 07:48:20;;;;;;;1999.90;999.90;;;10.60;99.90;;;;;;4988504;28;20053;-82
2023/04/11 07:50:45;;;;;;;1999.90;999.90;;;10.80;99.90;;;;;;5011853;28;20050;-81
2023/04/11 07:53:11;;;;;;;1999.90;999.90;;;10.40;99.90;;;;;;5013317;28;20398;-81
2023/04/11 07:55:37;;;;;;;1999.90;999.90;;;10.10;99.90;;;;;;5005844;28;20121;-83
2023/04/11 07:58:03;;;;;;;1589.60;752.70;;;11.00;99.90;;;;;;4990107;28;20043;-82
2023/04/11 08:00:31;;;;;;;1999.90;999.90;;;10.70;99.90;;;;;;4988702;28;20092;-80
2023/04/11 08:02:58;;;;;;;;;;;10.90;99.90;;;;;;5001063;28;20128;-81
2023/04/11 08:05:23;;;;;;;1999.90;999.90;;;10.90;99.90;;;;;;4998559;28;19976;-81
2023/04/11 08:07:49;;;;;;;1999.90;999.90;;;11.30;99.90;;;;;;5010768;28;20077;-81
2023/04/11 08:10:15;;;;;;;1999.90;999.90;;;10.40;99.90;;;;;;5012412;28;20049;-81
2023/04/11 08:12:41;;;;;;;1999.90;999.90;;;10.30;99.90;;;;;;4991746;28;20125;-81
2023/04/11 08:15:07;;;;;;;1999.90;999.90;;;10.60;99.90;;;;;;4990532;28;20046;-82
2023/04/11 08:17:36;;;;;;;1999.90;999.90;;;11.30;99.90;;;;;;4989528;28;20053;-81
2023/04/11 08:20:08;;;;;;;1999.90;999.90;;;10.70;99.90;;;;;;4982769;28;20133;-82
2023/04/11 08:22:33;;;;;;;1999.90;999.90;;;11.40;99.90;;;;;;4977366;28;20521;-81
2023/04/11 08:24:59;;;;;;;1999.90;999.90;;;11.70;99.90;;;;;;5012390;28;20081;-82
2023/04/11 08:27:25;;;;;;;1999.90;999.90;;;12.90;99.90;;;;;;4989307;28;20484;-82
2023/04/11 08:29:50;;;;;;;1999.90;999.90;;;12.10;99.90;;;;;;4982324;28;20042;-90
2023/04/11 08:32:16;;;;;;;1999.90;999.90;;;11.50;99.90;;;;;;4979912;28;20050;-82
2023/04/11 08:34:42;;;;;;;1999.90;999.90;;;11.40;99.90;;;;;;4991724;28;20043;-80
2023/04/11 08:37:07;;;;;;;1999.90;999.90;;;10.80;99.90;;;;;;4986174;28;20078;-80
2023/04/11 08:39:33;;;;;;;1999.90;999.90;;;9.90;99.90;;;;;;4994154;28;20045;-78
2023/04/11 08:41:59;;;;;;;1999.90;999.90;;;10.50;99.90;;;;;;5010091;28;20046;-93
2023/04/11 08:44:25;;;;;;;1999.90;999.90;;;9.60;99.90;;;;;;5005710;28;20042;-82
2023/04/11 08:46:51;;;;;;;1999.90;999.90;;;9.60;99.90;;;;;;4974154;28;20072;-78
2023/04/11 08:49:16;;;;;;;1999.90;999.90;;;9.90;99.90;;;;;;5009327;28;20069;-78
2023/04/11 08:51:43;;;;;;;1999.90;999.90;;;9.50;99.90;;;;;;4992549;28;20065;-78
2023/04/11 08:54:09;;;;;;;1999.90;999.90;;;10.60;99.90;;;;;;5008032;28;20049;-78
2023/04/11 08:56:35;;;;;;;1999.90;999.90;;;9.30;99.90;;;;;;5004679;28;20052;-78
2023/04/11 08:59:01;;;;;;;1999.90;999.90;;;10.90;99.90;;;;;;4984229;28;20134;-92
2023/04/11 09:01:35;;;;;;;1999.90;999.90;;;10.80;99.90;;;;;;5001680;28;20057;-82
2023/04/11 09:04:06;;;;;;;1999.90;999.90;;;12.50;99.90;;;;;;5010994;28;20045;-92
2023/04/11 09:06:33;;;;;;;1999.90;999.90;;;13.30;99.90;;;;;;4983893;28;20439;-78
2023/04/11 09:09:00;;;;;;;1999.90;999.90;;;12.80;99.90;;;;;;4999978;28;20050;-79
2023/04/11 09:11:26;;;;;;;1999.90;999.90;;;11.60;99.90;;;;;;4984214;28;20058;-78
2023/04/11 09:14:06;;;;;;;1999.90;999.90;;;11.60;99.90;;;;;;4996637;28;20104;-76
2023/04/11 09:16:32;;;;;;;1999.90;999.90;;;11.10;99.90;;;;;;5008728;28;20046;-77
2023/04/11 09:18:58;;;;;;;1999.90;999.90;;;10.70;99.90;;;;;;4988403;28;20046;-78
2023/04/11 09:21:23;;;;;;;1999.90;999.90;;;11.60;99.90;;;;;;4983098;28;20057;-81
2023/04/11 09:23:49;;;;;;;1999.90;999.90;;;13.30;99.90;;;;;;5006571;28;20046;-78
2023/04/11 09:26:28;;;;;;;1999.90;999.90;;;13.80;99.90;;;;;;5008008;28;20042;-78
2023/04/11 09:28:54;;;;;;;1999.90;999.90;;;13.00;99.90;;;;;;5010946;28;20089;-78
2023/04/11 09:31:20;;;;;;;1999.90;999.90;;;12.70;99.90;;;;;;5001134;28;20093;-82
2023/04/11 09:33:57;;;;;;;1999.90;999.90;;;13.30;99.90;;;;;;4960528;28;20113;-78
2023/04/11 09:36:26;;;;;;;1999.90;999.90;;;13.60;99.90;;;;;;5004754;28;20414;-79
2023/04/11 09:38:52;;;;;;;1999.90;999.90;;;13.50;99.90;;;;;;5011244;28;20046;-78
2023/04/11 09:41:35;;;;;;;1999.90;999.90;;;13.60;99.90;;;;;;4983584;28;20054;-87
2023/04/11 09:44:01;;;;;;;1999.90;999.90;;;13.50;99.90;;;;;;4992109;28;20039;-82
2023/04/11 09:46:27;;;;;;;1999.90;999.90;;;13.20;99.90;;;;;;4985482;28;20045;-86
2023/04/11 09:48:53;;;;;;;1999.90;999.90;;;13.20;99.90;;;;;;4986265;28;20056;-78
2023/04/11 09:51:19;;;;;;;1999.90;999.90;;;12.50;99.90;;;;;;4986046;28;20049;-82
2023/04/11 09:53:45;;;;;;;1999.90;999.90;;;13.10;99.90;;;;;;5012685;28;20053;-78
2023/04/11 09:56:12;;;;;;;1999.90;999.90;;;12.30;99.90;;;;;;4998127;28;20474;-79
2023/04/11 09:58:39;;;;;;;1999.90;999.90;;;11.70;99.90;;;;;;5000740;28;20055;-79
2023/04/11 10:01:07;;;;;;;1999.90;999.90;;;11.70;99.90;;;;;;5012533;28;20042;-80
2023/04/11 10:03:38;;;;;;;1999.90;999.90;;;11.20;99.90;;;;;;5009270;28;20054;-80
2023/04/11 10:06:32;;;;;;;1999.90;999.90;;;11.50;99.90;;;;;;4995275;28;20046;-81
2023/04/11 10:09:09;;;;;;;1999.90;999.90;;;11.20;99.90;;;;;;4968969;28;20084;-82
2023/04/11 10:11:35;;;;;;;1999.90;999.90;;;12.00;99.90;;;;;;5002659;28;20088;-82
2023/04/11 10:14:01;;;;;;;1999.90;999.90;;;13.30;99.90;;;;;;5010704;28;20074;-83
2023/04/11 10:16:31;;;;;;;1999.90;999.90;;;14.00;99.90;;;;;;4975910;28;20049;-83
2023/04/11 10:18:56;;;;;;;1999.90;999.90;;;14.70;99.90;;;;;;4985866;28;20050;-84
2023/04/11 10:21:35;;;;;;;1999.90;999.90;;;13.60;99.90;;;;;;4977732;28;20050;-84
2023/04/11 10:24:08;;;;;;;;;;;13.90;99.90;;;;;;4976297;28;20078;-85
2023/04/11 10:26:53;;;;;;;1999.90;999.90;;;13.90;99.90;;;;;;4975814;28;19918;-85
2023/04/11 10:32:16;;;;;;;1999.90;999.90;;;13.30;99.90;;;;;;4995153;28;20050;-88
2023/04/11 10:34:54;;;;;;;1999.90;999.90;;;13.00;99.90;;;;;;4958938;28;20061;-89
2023/04/11 10:37:29;;;;;;;1999.90;999.90;;;11.80;99.90;;;;;;4995642;28;20555;-89
2023/04/11 10:40:08;;;;;;;1999.90;999.90;;;11.40;99.90;;;;;;4994445;28;20100;-89
2023/04/11 10:42:37;;;;;;;1999.90;999.90;;;11.20;99.90;;;;;;4995049;28;20438;-89
2023/04/11 10:45:24;;;;;;;1999.90;999.90;;;12.20;99.90;;;;;;4995692;28;20092;-86
2023/04/11 10:47:56;;;;;;;1999.90;999.90;;;12.60;99.90;;;;;;4981586;28;20058;-86
2023/04/11 10:50:25;;;;;;;1999.90;999.90;;;13.70;99.90;;;;;;4993013;28;20125;-85
2023/04/11 10:52:58;;;;;;;1999.90;999.90;;;13.10;99.90;;;;;;4993930;28;20058;-85
2023/04/11 10:55:25;;;;;;;1999.90;999.90;;;13.00;99.90;;;;;;4988579;28;20046;-84
2023/04/11 10:58:10;;;;;;;;;;;13.00;99.90;;;;;;5013315;28;20398;-85
2023/04/11 11:00:45;;;;;;;1999.90;999.90;;;13.30;99.90;;;;;;4999666;28;20196;-83
2023/04/11 11:03:15;;;;;;;1999.90;999.90;;;14.70;99.90;;;;;;4996875;28;20058;-82
2023/04/11 11:05:41;;;;;;;1999.90;999.90;;;15.10;99.90;;;;;;5006564;28;20499;-83
2023/04/11 11:08:07;;;;;;;1999.90;999.90;;;14.70;99.90;;;;;;5014136;28;20112;-82
2023/04/11 11:10:39;;;;;;;1999.90;999.90;;;13.90;99.90;;;;;;5007283;28;20069;-82
2023/04/11 11:13:05;;;;;;;1999.90;999.90;;;13.30;99.90;;;;;;4993136;28;20050;-82
2023/04/11 11:15:36;;;;;;;1999.90;999.90;;;12.90;99.90;;;;;;4979124;28;20043;-81
2023/04/11 11:18:04;;;;;;;1999.90;999.90;;;13.50;99.90;;;;;;4965900;28;20484;-82
2023/04/11 11:20:29;;;;;;;;;;;13.70;99.90;;;;;;4970096;28;20105;-81
2023/04/11 11:23:06;;;;;;;1999.90;999.90;;;13.80;99.90;;;;;;5001261;28;19925;-81
2023/04/11 11:25:32;;;;;;;1999.90;999.90;;;13.60;99.90;;;;;;4997569;28;20058;-84
2023/04/11 11:28:02;;;;;;;1999.90;999.90;;;13.00;99.90;;;;;;4994117;28;20050;-81
2023/04/11 11:30:28;;;;;;;1999.90;999.90;;;12.90;99.90;;;;;;5006307;28;20129;-81
2023/04/11 11:32:55;;;;;;;1999.90;999.90;;;13.40;99.90;;;;;;4973229;28;20084;-81
2023/04/11 11:35:24;;;;;;;1999.90;999.90;;;14.00;99.90;;;;;;4985653;28;20068;-81
2023/04/11 11:37:52;;;;;;;1999.90;999.90;;;15.40;99.90;;;;;;4990585;28;20053;-81
2023/04/11 11:40:20;;;;;;;1999.90;999.90;;;15.90;99.90;;;;;;5009666;28;20053;-85
2023/04/11 11:42:48;;;;;;;1999.90;999.90;;;16.40;99.90;;;;;;5010676;28;20521;-81
2023/04/11 11:45:21;;;;;;;1999.90;999.90;;;16.40;99.90;;;;;;4972347;28;20089;-81
2023/04/11 11:47:48;;;;;;;1999.90;999.90;;;16.00;99.90;;;;;;5006670;28;20057;-79
2023/04/11 11:50:40;;;;;;;1999.90;999.90;;;15.90;99.90;;;;;;5010239;28;20121;-80
2023/04/11 11:53:15;;;;;;;1999.90;999.90;;;16.00;99.90;;;;;;4981336;28;20503;-80
2023/04/11 11:55:42;;;;;;;1999.90;580.30;;;15.80;99.90;;;;;;4957086;28;20097;-80
2023/04/11 11:58:08;;;;;;;1999.90;999.90;;;16.30;99.90;;;;;;5013363;28;20049;-79
2023/04/11 12:00:38;;;;;;;1999.90;862.20;;;16.30;99.90;;;;;;5007854;28;20102;-80
2023/04/11 12:03:05;;;;;;;1999.90;936.08;;;15.30;99.90;;;;;;4967341;28;20050;-80
2023/04/11 12:05:32;;;;;;;1999.90;860.08;;;15.20;99.90;;;;;;4999272;28;20145;-79
2023/04/11 12:08:04;;;;;;;1999.90;999.90;;;14.80;99.90;;;;;;4989005;28;20129;-79
2023/04/11 12:10:42;;;;;;;1999.90;999.90;;;14.60;99.90;;;;;;4984854;28;20046;-79
2023/04/11 12:13:26;;;;;;;1999.90;869.58;;;14.30;99.90;;;;;;5008926;28;20104;-79